Hauptseite
METAR-TAF:

METAR-TAF

Flughäfen :

Dakar, Senegal

Flughafen Dakar-Léopold Sédar Senghor

Breite: 14-44N, Länge: 017-30W, Höhe: 27 m

Beobachtung

Neuester Wetterbericht von vor 36 Minuten, um 08:00 UTC
Wind 7 kt aus Nord
Temperatur 27°C
Luftfeuchtigkeit 84%
Luftdruck 1013 hPa
Sichtweite 10 km oder mehr
Aufgelockert bewölkt in der Höhe von 1000 ft

METAR: GOOY 240800Z 36007KT 9999 SCT010 27/24 Q1013 NOSIG

Zeit: 08:36 (08:36 UTC)

Prognose

Neuester Wetterbericht von vor 3 Stunden und 6 Minuten, um 05:30 UTC
Gültige Prognose vom 24 um 06 UTC bis 25 um 12 UTC
Wind 9 kt aus Nord/Nordwest
Sichtweite 10 km oder mehr
Aufgelockert bewölkt in der Höhe von 1200 ft

TAF: GOOY 240530Z 2406/2512 34009KT 9999 SCT012

Wetterbeobachtungen und Prognosen von mehr als 4000 Flughäfen (METAR und TAF Bericht).

Die verfügbaren Stationen werden durch gelbe und rote Markierungen auf der Karte dargestellt.

Führen Sie die Maus auf sie, um den Namen der Station zu sehen.

Darauf klicken, um die Beobachtung von Wetterbeobachtungen und Prognosen zu sehen.

Um die Karte zu ändern : klicken Sie auf den grünen Tasten mit einem schwarzen Kreuz Zum Vergrößern, auf den grünen Button mit einem Gedankenstrich zu verkleinern, oder auf die grünen Pfeile für benachbarte Karten.


METAR-TAF: